Time;durP1;ratioP1;P1;durP2;ratioP2;P2;SDS_P1;SDS_P2;PMS_P1;PMS_P2;Temp;Humidity;BMP_temperature;BMP_pressure;BME280_temperature;BME280_humidity;BME280_pressure;Samples;Min_cycle;Max_cycle;Signal;HPM_P1;HPM_P2
2022/06/21 00:01:01;;;;;;;;;;;;;;;;;;5092355;28;20071;-68
2022/06/21 00:03:27;;;;;;;;;;;;;;;;;;5093190;28;20468;-68
2022/06/21 00:05:53;;;;;;;;;;;;;;;;;;5093077;28;19920;-68
2022/06/21 00:08:19;;;;;;;;;;;;;;;;;;5092348;28;20030;-68
2022/06/21 00:10:45;;;;;;;;;;;;;;;;;;5092816;28;20010;-68
2022/06/21 00:13:11;;;;;;;;;;;;;;;;;;5092909;28;19924;-68
2022/06/21 00:15:37;;;;;;;;;;;;;;;;;;5092289;28;20266;-68
2022/06/21 00:18:03;;;;;;;;;;;;;;;;;;5092876;28;19955;-68
2022/06/21 00:20:29;;;;;;;;;;;;;;;;;;5092376;28;19989;-68
2022/06/21 00:22:55;;;;;;;;;;;;;;;;;;5090655;28;19993;-68
2022/06/21 00:25:21;;;;;;;;;;;;;;;;;;5090647;28;19924;-68
2022/06/21 00:27:47;;;;;;;;;;;;;;;;;;5072117;28;19924;-68
2022/06/21 00:30:13;;;;;;;;;;;;;;;;;;5071583;28;19924;-68
2022/06/21 00:32:39;;;;;;;;;;;;;;;;;;5070918;28;19927;-68
2022/06/21 00:35:06;;;;;;;;;;;;;;;;;;5072303;28;19920;-68
2022/06/21 00:37:32;;;;;;;;;;;;;;;;;;5071040;28;19924;-68
2022/06/21 00:39:58;;;;;;;;;;;;;;;;;;5072289;28;19920;-68
2022/06/21 00:42:24;;;;;;;;;;;;;;;;;;5072020;28;19991;-68
2022/06/21 00:44:50;;;;;;;;;;;;;;;;;;5071596;28;20042;-68
2022/06/21 00:47:16;;;;;;;;;;;;;;;;;;5072203;28;19974;-68
2022/06/21 00:49:42;;;;;;;;;;;;;;;;;;5072095;28;19975;-68
2022/06/21 00:52:07;;;;;;;;;;;;;;;;;;5071586;28;19924;-68
2022/06/21 00:54:33;;;;;;;;;;;;;;;;;;5072046;28;20003;-68
2022/06/21 00:56:59;;;;;;;;;;;;;;;;;;5072101;28;19947;-68
2022/06/21 00:59:25;;;;;;;;;;;;;;;;;;5071516;28;19921;-68
2022/06/21 01:01:51;;;;;;;;;;;;;;;;;;5071763;28;20109;-68
2022/06/21 01:04:17;;;;;;;;;;;;;;;;;;5071988;28;19920;-68
2022/06/21 01:06:43;;;;;;;;;;;;;;;;;;5071370;28;20425;-68
2022/06/21 01:09:09;;;;;;;;;;;;;;;;;;5071455;28;19935;-68
2022/06/21 01:11:35;;;;;;;;;;;;;;;;;;5071862;28;19920;-68
2022/06/21 01:14:01;;;;;;;;;;;;;;;;;;5071321;28;19937;-68
2022/06/21 01:16:27;;;;;;;;;;;;;;;;;;5071920;28;19920;-68
2022/06/21 01:18:53;;;;;;;;;;;;;;;;;;5071607;28;20094;-68
2022/06/21 01:21:19;;;;;;;;;;;;;;;;;;5071140;28;19925;-68
2022/06/21 01:23:45;;;;;;;;;;;;;;;;;;5071697;28;19933;-68
2022/06/21 01:26:11;;;;;;;;;;;;;;;;;;5080188;28;19925;-68
2022/06/21 01:28:37;;;;;;;;;;;;;;;;;;5091284;28;19920;-68
2022/06/21 01:31:02;;;;;;;;;;;;;;;;;;5091832;28;19924;-68
2022/06/21 01:33:28;;;;;;;;;;;;;;;;;;5091927;28;19920;-68
2022/06/21 01:35:54;;;;;;;;;;;;;;;;;;5090923;28;19924;-68
2022/06/21 01:38:21;;;;;;;;;;;;;;;;;;5092004;28;20019;-68
2022/06/21 01:40:47;;;;;;;;;;;;;;;;;;5091452;28;19928;-68
2022/06/21 01:43:13;;;;;;;;;;;;;;;;;;5091102;28;19924;-68
2022/06/21 01:45:38;;;;;;;;;;;;;;;;;;5091626;28;19927;-68
2022/06/21 01:48:04;;;;;;;;;;;;;;;;;;5091734;28;20358;-68
2022/06/21 01:50:30;;;;;;;;;;;;;;;;;;5094880;28;19952;-68
2022/06/21 01:52:56;;;;;;;;;;;;;;;;;;5095096;28;19928;-68
2022/06/21 01:55:22;;;;;;;;;;;;;;;;;;5095503;28;20010;-68
2022/06/21 01:57:48;;;;;;;;;;;;;;;;;;5095584;28;19969;-68
2022/06/21 02:00:14;;;;;;;;;;;;;;;;;;5094811;28;19920;-68
2022/06/21 02:02:41;;;;;;;;;;;;;;;;;;5095545;28;19931;-68
2022/06/21 02:05:07;;;;;;;;;;;;;;;;;;5095468;28;19920;-68
2022/06/21 02:07:33;;;;;;;;;;;;;;;;;;5094424;28;19920;-68
2022/06/21 02:09:59;;;;;;;;;;;;;;;;;;5094742;28;19931;-68
2022/06/21 02:12:25;;;;;;;;;;;;;;;;;;5095236;28;19920;-68
2022/06/21 02:14:51;;;;;;;;;;;;;;;;;;5094543;28;19920;-68
2022/06/21 02:17:17;;;;;;;;;;;;;;;;;;5095267;28;19924;-68
2022/06/21 02:19:43;;;;;;;;;;;;;;;;;;5095050;28;20535;-68
2022/06/21 02:22:09;;;;;;;;;;;;;;;;;;5094270;28;19920;-68
2022/06/21 02:24:35;;;;;;;;;;;;;;;;;;5094915;28;19920;-68
2022/06/21 02:27:01;;;;;;;;;;;;;;;;;;5079035;28;19982;-68
2022/06/21 02:29:27;;;;;;;;;;;;;;;;;;5073897;28;20414;-68
2022/06/21 02:31:53;;;;;;;;;;;;;;;;;;5074545;28;19920;-68
2022/06/21 02:34:19;;;;;;;;;;;;;;;;;;5074462;28;19928;-68
2022/06/21 02:36:45;;;;;;;;;;;;;;;;;;5073843;28;19947;-68
2022/06/21 02:39:11;;;;;;;;;;;;;;;;;;5074386;28;19920;-68
2022/06/21 02:41:37;;;;;;;;;;;;;;;;;;5074362;28;19924;-68
2022/06/21 02:44:03;;;;;;;;;;;;;;;;;;5073260;28;20019;-68
2022/06/21 02:46:29;;;;;;;;;;;;;;;;;;5074077;28;19921;-68
2022/06/21 02:48:55;;;;;;;;;;;;;;;;;;5074102;28;19999;-69
2022/06/21 02:51:21;;;;;;;;;;;;;;;;;;5073481;28;19927;-68
2022/06/21 02:53:46;;;;;;;;;;;;;;;;;;5072768;28;19924;-67
2022/06/21 02:56:12;;;;;;;;;;;;;;;;;;5074130;28;20264;-67
2022/06/21 02:58:38;;;;;;;;;;;;;;;;;;5073190;28;19924;-67
2022/06/21 03:01:04;;;;;;;;;;;;;;;;;;5073326;28;20029;-67
2022/06/21 03:03:31;;;;;;;;;;;;;;;;;;5073945;28;19924;-67
2022/06/21 03:05:57;;;;;;;;;;;;;;;;;;5073433;28;19920;-67
2022/06/21 03:08:23;;;;;;;;;;;;;;;;;;5073829;28;20359;-67
2022/06/21 03:10:49;;;;;;;;;;;;;;;;;;5072206;28;20529;-67
2022/06/21 03:13:15;;;;;;;;;;;;;;;;;;5073222;28;19920;-67
2022/06/21 03:15:41;;;;;;;;;;;;;;;;;;5073788;28;19978;-67
2022/06/21 03:18:07;;;;;;;;;;;;;;;;;;5072144;28;19924;-67
2022/06/21 03:20:33;;;;;;;;;;;;;;;;;;5072479;28;20318;-67
2022/06/21 03:22:59;;;;;;;;;;;;;;;;;;5072105;28;19921;-67
2022/06/21 03:25:25;;;;;;;;;;;;;;;;;;5075956;28;19920;-67
2022/06/21 03:27:51;;;;;;;;;;;;;;;;;;5093151;28;19943;-67
2022/06/21 03:30:17;;;;;;;;;;;;;;;;;;5093626;28;19924;-67
2022/06/21 03:32:43;;;;;;;;;;;;;;;;;;5093545;28;19993;-67
2022/06/21 03:35:09;;;;;;;;;;;;;;;;;;5092988;28;19940;-67
2022/06/21 03:37:35;;;;;;;;;;;;;;;;;;5093714;28;20076;-67
2022/06/21 03:42:45;;;;;;;;;;;;;;;;;;5092666;28;20297;-67
2022/06/21 03:45:11;;;;;;;;;;;;;;;;;;5093378;28;19972;-67
2022/06/21 03:47:37;;;;;;;;;;;;;;;;;;5093302;28;19920;-67
2022/06/21 03:50:03;;;;;;;;;;;;;;;;;;5092282;28;19924;-67
2022/06/21 03:52:42;;;;;;;;;;;;;;;;;;5092988;28;19924;-67
2022/06/21 03:55:07;;;;;;;;;;;;;;;;;;5093311;28;19920;-67
2022/06/21 03:57:33;;;;;;;;;;;;;;;;;;5090994;28;19927;-67
2022/06/21 03:59:59;;;;;;;;;;;;;;;;;;5093140;28;19920;-67
2022/06/21 04:02:25;;;;;;;;;;;;;;;;;;5091584;28;19986;-67
2022/06/21 04:04:51;;;;;;;;;;;;;;;;;;5092488;28;19969;-67
2022/06/21 04:07:17;;;;;;;;;;;;;;;;;;5091759;28;19920;-67
2022/06/21 04:09:43;;;;;;;;;;;;;;;;;;5092860;28;19931;-67
2022/06/21 04:12:09;;;;;;;;;;;;;;;;;;5091696;28;19942;-67
2022/06/21 04:14:35;;;;;;;;;;;;;;;;;;5092677;28;19995;-67
2022/06/21 04:17:01;;;;;;;;;;;;;;;;;;5092793;28;19920;-67
2022/06/21 04:19:27;;;;;;;;;;;;;;;;;;5092226;28;20373;-68
2022/06/21 04:21:53;;;;;;;;;;;;;;;;;;5092372;28;19962;-67
2022/06/21 04:24:19;;;;;;;;;;;;;;;;;;5092829;28;19963;-67
2022/06/21 04:26:45;;;;;;;;;;;;;;;;;;5078289;28;20007;-67
2022/06/21 04:29:11;;;;;;;;;;;;;;;;;;5072299;28;19971;-68
2022/06/21 04:31:37;;;;;;;;;;;;;;;;;;5072281;28;19920;-68
2022/06/21 04:34:03;;;;;;;;;;;;;;;;;;5071486;28;19924;-68
2022/06/21 04:36:30;;;;;;;;;;;;;;;;;;5072121;28;19921;-68
2022/06/21 04:38:56;;;;;;;;;;;;;;;;;;5072165;28;20527;-68
2022/06/21 04:41:22;;;;;;;;;;;;;;;;;;5071492;28;19927;-68
2022/06/21 04:43:48;;;;;;;;;;;;;;;;;;5071700;28;20027;-68
2022/06/21 04:46:14;;;;;;;;;;;;;;;;;;5071905;28;20027;-68
2022/06/21 04:48:40;;;;;;;;;;;;;;;;;;5071232;28;20011;-68
2022/06/21 04:51:06;;;;;;;;;;;;;;;;;;5071938;28;19925;-68
2022/06/21 04:53:32;;;;;;;;;;;;;;;;;;5072101;28;19924;-67
2022/06/21 04:55:58;;;;;;;;;;;;;;;;;;5071378;28;20422;-67
2022/06/21 04:58:24;;;;;;;;;;;;;;;;;;5071959;28;19993;-67
2022/06/21 05:00:50;;;;;;;;;;;;;;;;;;5071667;28;19924;-67
2022/06/21 05:03:16;;;;;;;;;;;;;;;;;;5071169;28;19963;-67
2022/06/21 05:05:42;;;;;;;;;;;;;;;;;;5071891;28;19920;-67
2022/06/21 05:08:07;;;;;;;;;;;;;;;;;;5071754;28;19921;-68
2022/06/21 05:10:33;;;;;;;;;;;;;;;;;;5070901;28;19946;-68
2022/06/21 05:12:59;;;;;;;;;;;;;;;;;;5072097;28;20302;-68
2022/06/21 05:15:25;;;;;;;;;;;;;;;;;;5071776;28;19947;-68
2022/06/21 05:17:51;;;;;;;;;;;;;;;;;;5072752;28;19974;-68
2022/06/21 05:20:17;;;;;;;;;;;;;;;;;;5081522;28;19955;-68
2022/06/21 05:22:43;;;;;;;;;;;;;;;;;;5091011;28;19942;-68
2022/06/21 05:25:09;;;;;;;;;;;;;;;;;;5094668;28;20384;-68
2022/06/21 05:27:36;;;;;;;;;;;;;;;;;;5095357;28;19920;-67
2022/06/21 05:30:03;;;;;;;;;;;;;;;;;;5095597;28;19937;-67
2022/06/21 05:32:29;;;;;;;;;;;;;;;;;;5095849;28;19941;-67
2022/06/21 05:34:55;;;;;;;;;;;;;;;;;;5093349;28;20019;-67
2022/06/21 05:37:21;;;;;;;;;;;;;;;;;;5095652;28;19919;-68
2022/06/21 05:39:47;;;;;;;;;;;;;;;;;;5095816;28;19947;-68
2022/06/21 05:42:13;;;;;;;;;;;;;;;;;;5094824;28;19943;-68
2022/06/21 05:44:39;;;;;;;;;;;;;;;;;;5093718;28;19939;-68
2022/06/21 05:47:05;;;;;;;;;;;;;;;;;;5095383;28;19924;-67
2022/06/21 05:49:31;;;;;;;;;;;;;;;;;;5094314;28;19925;-68
2022/06/21 05:51:57;;;;;;;;;;;;;;;;;;5095393;28;19927;-68
2022/06/21 05:54:23;;;;;;;;;;;;;;;;;;5094940;28;19958;-68
2022/06/21 05:56:49;;;;;;;;;;;;;;;;;;5089874;28;20006;-68
2022/06/21 05:59:15;;;;;;;;;;;;;;;;;;5083183;28;20299;-68
2022/06/21 06:01:41;;;;;;;;;;;;;;;;;;5082645;28;20038;-68
2022/06/21 06:04:07;;;;;;;;;;;;;;;;;;5093687;28;19963;-68
2022/06/21 06:06:35;;;;;;;;;;;;;;;;;;5093019;28;19970;-67
2022/06/21 06:09:01;;;;;;;;;;;;;;;;;;5089234;28;19924;-67
2022/06/21 06:11:57;;;;;;;;;;;;;;;;;;5093087;28;19980;-67
2022/06/21 06:14:13;;;;;;;;;;;;;;;;;;5093765;28;19974;-67
2022/06/21 06:16:39;;;;;;;;;;;;;;;;;;5094805;28;19955;-66
2022/06/21 06:19:05;;;;;;;;;;;;;;;;;;5107189;28;19959;-67
2022/06/21 06:21:30;;;;;;;;;;;;;;;;;;5089961;28;19923;-66
2022/06/21 06:23:57;;;;;;;;;;;;;;;;;;5094403;28;19920;-67
2022/06/21 06:26:23;;;;;;;;;;;;;;;;;;5095105;28;20267;-68
2022/06/21 06:28:48;;;;;;;;;;;;;;;;;;5095609;28;20023;-68
2022/06/21 06:31:15;;;;;;;;;;;;;;;;;;5109384;28;19923;-68
2022/06/21 06:33:41;;;;;;;;;;;;;;;;;;5096339;28;19935;-66
2022/06/21 06:36:08;;;;;;;;;;;;;;;;;;5091814;28;20251;-65
2022/06/21 06:38:34;;;;;;;;;;;;;;;;;;5086243;28;19931;-68
2022/06/21 06:41:00;;;;;;;;;;;;;;;;;;5084925;28;20465;-68
2022/06/21 06:43:26;;;;;;;;;;;;;;;;;;5093050;28;19972;-68
2022/06/21 06:45:52;;;;;;;;;;;;;;;;;;5092737;28;19929;-69
2022/06/21 06:48:17;;;;;;;;;;;;;;;;;;5092366;28;19920;-69
2022/06/21 06:50:43;;;;;;;;;;;;;;;;;;5092985;28;19928;-68
2022/06/21 06:53:09;;;;;;;;;;;;;;;;;;5086185;28;19920;-67
2022/06/21 06:55:35;;;;;;;;;;;;;;;;;;5083558;28;19920;-67
2022/06/21 06:58:01;;;;;;;;;;;;;;;;;;5091897;28;19924;-69
2022/06/21 07:00:27;;;;;;;;;;;;;;;;;;5092691;28;19924;-68
2022/06/21 07:02:53;;;;;;;;;;;;;;;;;;5093133;28;19970;-68
2022/06/21 07:05:19;;;;;;;;;;;;;;;;;;5093477;28;19920;-69
2022/06/21 07:07:45;;;;;;;;;;;;;;;;;;5095838;28;19967;-69
2022/06/21 07:10:11;;;;;;;;;;;;;;;;;;5106981;28;19932;-66
2022/06/21 07:12:37;;;;;;;;;;;;;;;;;;5092417;28;19973;-69
2022/06/21 07:15:04;;;;;;;;;;;;;;;;;;5094193;28;20300;-69
2022/06/21 07:17:31;;;;;;;;;;;;;;;;;;5075481;28;19935;-68
2022/06/21 07:19:57;;;;;;;;;;;;;;;;;;5093812;28;19926;-67
2022/06/21 07:22:23;;;;;;;;;;;;;;;;;;5097207;28;20415;-68
2022/06/21 07:24:49;;;;;;;;;;;;;;;;;;5095969;28;19973;-68
2022/06/21 07:27:15;;;;;;;;;;;;;;;;;;5074048;28;19989;-68
2022/06/21 07:29:41;;;;;;;;;;;;;;;;;;5092457;28;20105;-69
2022/06/21 07:32:08;;;;;;;;;;;;;;;;;;5093078;28;19920;-66
2022/06/21 07:34:34;;;;;;;;;;;;;;;;;;5095396;28;19963;-67
2022/06/21 07:37:00;;;;;;;;;;;;;;;;;;5092947;28;19942;-68
2022/06/21 07:39:25;;;;;;;;;;;;;;;;;;5091250;28;19920;-67
2022/06/21 07:41:51;;;;;;;;;;;;;;;;;;5088003;28;20011;-68
2022/06/21 07:44:17;;;;;;;;;;;;;;;;;;5089856;28;19924;-68
2022/06/21 07:46:43;;;;;;;;;;;;;;;;;;5101155;28;19920;-67
2022/06/21 07:49:09;;;;;;;;;;;;;;;;;;5098036;28;20049;-66
2022/06/21 07:51:35;;;;;;;;;;;;;;;;;;5109528;28;19920;-69
2022/06/21 07:54:03;;;;;;;;;;;;;;;;;;5090151;28;22341;-69
2022/06/21 07:56:29;;;;;;;;;;;;;;;;;;5093383;28;20014;-70
2022/06/21 07:58:56;;;;;;;;;;;;;;;;;;5100701;28;19973;-70
2022/06/21 08:06:51;;;;;;;;;;;;;;;;;;5082051;28;20313;-66
2022/06/21 08:09:17;;;;;;;;;;;;;;;;;;5088526;28;20370;-68
2022/06/21 08:11:43;;;;;;;;;;;;;;;;;;5089919;28;20270;-69
2022/06/21 08:14:09;;;;;;;;;;;;;;;;;;5093117;28;19920;-69
2022/06/21 08:16:37;;;;;;;;;;;;;;;;;;5098251;28;20321;-70
2022/06/21 08:19:03;;;;;;;;;;;;;;;;;;5083614;28;19927;-67
2022/06/21 08:21:31;;;;;;;;;;;;;;;;;;5092458;28;19924;-69
2022/06/21 08:23:57;;;;;;;;;;;;;;;;;;5093794;28;19932;-69
2022/06/21 08:26:23;;;;;;;;;;;;;;;;;;5094081;28;20006;-70
2022/06/21 08:28:49;;;;;;;;;;;;;;;;;;5102039;28;19927;-68
2022/06/21 08:31:15;;;;;;;;;;;;;;;;;;5091172;28;19924;-70
2022/06/21 08:33:43;;;;;;;;;;;;;;;;;;5095805;28;19932;-68
2022/06/21 08:36:09;;;;;;;;;;;;;;;;;;5088681;28;19920;-68
2022/06/21 08:38:35;;;;;;;;;;;;;;;;;;5091837;28;19927;-69
2022/06/21 08:41:01;;;;;;;;;;;;;;;;;;5092102;28;19920;-68
2022/06/21 08:43:27;;;;;;;;;;;;;;;;;;5097168;28;19931;-68
2022/06/21 08:45:53;;;;;;;;;;;;;;;;;;5087920;28;19921;-68
2022/06/21 08:48:19;;;;;;;;;;;;;;;;;;5087748;28;20374;-66
2022/06/21 08:50:45;;;;;;;;;;;;;;;;;;5090885;28;19964;-66
2022/06/21 08:53:11;;;;;;;;;;;;;;;;;;5091918;28;20286;-67
2022/06/21 08:55:38;;;;;;;;;;;;;;;;;;5092331;28;19931;-67
2022/06/21 08:58:04;;;;;;;;;;;;;;;;;;5089762;28;20053;-67
2022/06/21 09:00:33;;;;;;;;;;;;;;;;;;5090146;28;20019;-67
2022/06/21 09:02:59;;;;;;;;;;;;;;;;;;5091948;28;19931;-67
2022/06/21 09:05:25;;;;;;;;;;;;;;;;;;5087475;28;19928;-67
2022/06/21 09:07:50;;;;;;;;;;;;;;;;;;5087582;28;19923;-66
2022/06/21 09:10:16;;;;;;;;;;;;;;;;;;5085169;28;19928;-66
2022/06/21 09:12:42;;;;;;;;;;;;;;;;;;5088310;28;20002;-68
2022/06/21 09:15:08;;;;;;;;;;;;;;;;;;5090668;28;19928;-68
2022/06/21 09:17:35;;;;;;;;;;;;;;;;;;5094278;28;19936;-67
2022/06/21 09:20:02;;;;;;;;;;;;;;;;;;5090485;28;19920;-66
2022/06/21 09:22:28;;;;;;;;;;;;;;;;;;5088584;28;20023;-68
2022/06/21 09:24:54;;;;;;;;;;;;;;;;;;5090752;28;20023;-67
2022/06/21 09:27:20;;;;;;;;;;;;;;;;;;5090397;28;19924;-66
2022/06/21 09:29:46;;;;;;;;;;;;;;;;;;5089958;28;19956;-66
2022/06/21 09:32:13;;;;;;;;;;;;;;;;;;5089575;28;19925;-67
2022/06/21 09:34:39;;;;;;;;;;;;;;;;;;5090470;28;19920;-67
2022/06/21 09:37:05;;;;;;;;;;;;;;;;;;5079930;28;19924;-67
2022/06/21 09:39:31;;;;;;;;;;;;;;;;;;5092480;28;19927;-66
2022/06/21 09:41:57;;;;;;;;;;;;;;;;;;5089793;28;19942;-67
2022/06/21 09:44:22;;;;;;;;;;;;;;;;;;5099981;28;19928;-67
2022/06/21 09:46:49;;;;;;;;;;;;;;;;;;5090119;28;19946;-66
2022/06/21 09:49:15;;;;;;;;;;;;;;;;;;5094888;28;20411;-67
2022/06/21 09:51:41;;;;;;;;;;;;;;;;;;5096763;28;20620;-67
2022/06/21 09:54:09;;;;;;;;;;;;;;;;;;5091541;28;20336;-68
2022/06/21 09:56:37;;;;;;;;;;;;;;;;;;5096919;28;19920;-68
2022/06/21 09:59:04;;;;;;;;;;;;;;;;;;5090476;28;20427;-66
2022/06/21 10:01:29;;;;;;;;;;;;;;;;;;5095454;28;19931;-68
2022/06/21 10:03:55;;;;;;;;;;;;;;;;;;5092329;28;19920;-67
2022/06/21 10:06:23;;;;;;;;;;;;;;;;;;5092173;28;19954;-69
2022/06/21 10:08:49;;;;;;;;;;;;;;;;;;5093091;28;19964;-66
2022/06/21 10:11:16;;;;;;;;;;;;;;;;;;5104946;28;19970;-66
2022/06/21 10:13:42;;;;;;;;;;;;;;;;;;5094323;28;19924;-67
2022/06/21 10:16:08;;;;;;;;;;;;;;;;;;5095436;28;20033;-67
2022/06/21 10:18:34;;;;;;;;;;;;;;;;;;5110348;28;19931;-66
2022/06/21 10:21:00;;;;;;;;;;;;;;;;;;5092582;28;19924;-66
2022/06/21 10:23:27;;;;;;;;;;;;;;;;;;5093344;28;19926;-68
2022/06/21 10:25:53;;;;;;;;;;;;;;;;;;5093581;28;19923;-68
2022/06/21 10:28:19;;;;;;;;;;;;;;;;;;5095018;28;19985;-69
2022/06/21 10:30:45;;;;;;;;;;;;;;;;;;5092647;28;19924;-69
2022/06/21 10:33:11;;;;;;;;;;;;;;;;;;5091651;28;20014;-68
2022/06/21 10:35:36;;;;;;;;;;;;;;;;;;5093069;28;19985;-69
2022/06/21 10:38:03;;;;;;;;;;;;;;;;;;5092970;28;19946;-68
2022/06/21 10:40:29;;;;;;;;;;;;;;;;;;5092927;28;20409;-69
2022/06/21 10:42:55;;;;;;;;;;;;;;;;;;5100003;28;19924;-69
2022/06/21 10:45:21;;;;;;;;;;;;;;;;;;5097445;28;19934;-69
2022/06/21 10:47:47;;;;;;;;;;;;;;;;;;5092154;28;19924;-69
2022/06/21 10:50:13;;;;;;;;;;;;;;;;;;5092411;28;19974;-69
2022/06/21 10:52:39;;;;;;;;;;;;;;;;;;5092743;28;20011;-69
2022/06/21 10:55:05;;;;;;;;;;;;;;;;;;5100917;28;19943;-69
2022/06/21 10:57:31;;;;;;;;;;;;;;;;;;5096386;28;19928;-69
2022/06/21 11:02:41;;;;;;;;;;;;;;;;;;5093471;28;20287;-69
2022/06/21 11:05:07;;;;;;;;;;;;;;;;;;5093148;28;19924;-69
2022/06/21 11:07:33;;;;;;;;;;;;;;;;;;5092280;28;20313;-67
2022/06/21 11:09:59;;;;;;;;;;;;;;;;;;5099927;28;19930;-67
2022/06/21 11:15:10;;;;;;;;;;;;;;;;;;5092575;28;20277;-67
2022/06/21 11:17:37;;;;;;;;;;;;;;;;;;5093171;28;19920;-66
2022/06/21 11:20:03;;;;;;;;;;;;;;;;;;5093672;28;19921;-66
2022/06/21 11:22:29;;;;;;;;;;;;;;;;;;5098527;28;20015;-67
2022/06/21 11:24:55;;;;;;;;;;;;;;;;;;5093413;28;19931;-66
2022/06/21 11:27:21;;;;;;;;;;;;;;;;;;5093585;28;19924;-67
2022/06/21 11:29:47;;;;;;;;;;;;;;;;;;5091946;28;19928;-66
2022/06/21 11:32:12;;;;;;;;;;;;;;;;;;5093429;28;19989;-67
2022/06/21 11:34:39;;;;;;;;;;;;;;;;;;5093189;28;19924;-68
2022/06/21 11:37:06;;;;;;;;;;;;;;;;;;5091567;28;20050;-67
2022/06/21 11:39:33;;;;;;;;;;;;;;;;;;5093848;28;20600;-68
2022/06/21 11:42:05;;;;;;;;;;;;;;;;;;5088182;28;20003;-67
2022/06/21 11:44:31;;;;;;;;;;;;;;;;;;5078929;28;19932;-65
2022/06/21 11:46:57;;;;;;;;;;;;;;;;;;5084165;28;20279;-68
2022/06/21 11:49:23;;;;;;;;;;;;;;;;;;5084895;28;19944;-65
2022/06/21 11:51:49;;;;;;;;;;;;;;;;;;5076997;28;19921;-65
2022/06/21 11:54:15;;;;;;;;;;;;;;;;;;5091467;28;19932;-66
2022/06/21 11:56:41;;;;;;;;;;;;;;;;;;5092324;28;20003;-66
2022/06/21 11:59:07;;;;;;;;;;;;;;;;;;5091947;28;19927;-66
2022/06/21 12:01:33;;;;;;;;;;;;;;;;;;5092383;28;19943;-65
2022/06/21 12:03:59;;;;;;;;;;;;;;;;;;5092767;28;20347;-64
2022/06/21 12:06:29;;;;;;;;;;;;;;;;;;5084885;28;20021;-65
2022/06/21 12:08:55;;;;;;;;;;;;;;;;;;5088847;28;19920;-66
2022/06/21 12:11:21;;;;;;;;;;;;;;;;;;5091860;28;19928;-66
2022/06/21 12:13:48;;;;;;;;;;;;;;;;;;5097003;28;20023;-67
2022/06/21 12:16:16;;;;;;;;;;;;;;;;;;5109402;28;19963;-68
2022/06/21 12:18:42;;;;;;;;;;;;;;;;;;5092312;28;19923;-66
2022/06/21 12:21:08;;;;;;;;;;;;;;;;;;5091264;28;20011;-65
2022/06/21 12:23:35;;;;;;;;;;;;;;;;;;5081962;28;19924;-66
2022/06/21 12:26:01;;;;;;;;;;;;;;;;;;5083492;28;19931;-64
2022/06/21 12:28:26;;;;;;;;;;;;;;;;;;5076013;28;20006;-66
2022/06/21 12:30:55;;;;;;;;;;;;;;;;;;5092430;28;20032;-66
2022/06/21 12:33:21;;;;;;;;;;;;;;;;;;5091140;28;20333;-65
2022/06/21 12:35:47;;;;;;;;;;;;;;;;;;5091191;28;19927;-65
2022/06/21 12:38:13;;;;;;;;;;;;;;;;;;5091529;28;19997;-67
2022/06/21 12:40:39;;;;;;;;;;;;;;;;;;5090183;28;20350;-67
2022/06/21 12:43:05;;;;;;;;;;;;;;;;;;5091806;28;19931;-66
2022/06/21 12:45:32;;;;;;;;;;;;;;;;;;5093162;28;19924;-65
2022/06/21 12:47:58;;;;;;;;;;;;;;;;;;5092840;28;19920;-65
2022/06/21 12:50:23;;;;;;;;;;;;;;;;;;5073259;28;19947;-65
2022/06/21 12:52:49;;;;;;;;;;;;;;;;;;5089614;28;19920;-65
2022/06/21 12:55:16;;;;;;;;;;;;;;;;;;5086616;28;20024;-65
2022/06/21 12:57:42;;;;;;;;;;;;;;;;;;5090248;28;19924;-65
2022/06/21 13:00:10;;;;;;;;;;;;;;;;;;5087363;28;19920;-66
2022/06/21 13:02:36;;;;;;;;;;;;;;;;;;5089829;28;20381;-66
2022/06/21 13:05:01;;;;;;;;;;;;;;;;;;5084256;28;19920;-67
2022/06/21 13:07:27;;;;;;;;;;;;;;;;;;5091024;28;19927;-67
2022/06/21 13:09:53;;;;;;;;;;;;;;;;;;5090934;28;19947;-67
2022/06/21 13:12:19;;;;;;;;;;;;;;;;;;5090888;28;19943;-66
2022/06/21 13:14:45;;;;;;;;;;;;;;;;;;5091156;28;20006;-66
2022/06/21 13:17:11;;;;;;;;;;;;;;;;;;5091448;28;20025;-66
2022/06/21 13:19:37;;;;;;;;;;;;;;;;;;5090778;28;19924;-67
2022/06/21 13:22:03;;;;;;;;;;;;;;;;;;5082669;28;20003;-67
2022/06/21 13:24:29;;;;;;;;;;;;;;;;;;5081903;28;19953;-68
2022/06/21 13:26:55;;;;;;;;;;;;;;;;;;5087957;28;19920;-68
2022/06/21 13:29:21;;;;;;;;;;;;;;;;;;5087034;28;19924;-67
2022/06/21 13:31:47;;;;;;;;;;;;;;;;;;5084563;28;19920;-68
2022/06/21 13:34:13;;;;;;;;;;;;;;;;;;5081153;28;20011;-67
2022/06/21 13:36:39;;;;;;;;;;;;;;;;;;5087508;28;20015;-67
2022/06/21 13:39:08;;;;;;;;;;;;;;;;;;5079542;28;20007;-67
2022/06/21 13:44:18;;;;;;;;;;;;;;;;;;5084849;28;19924;-67
2022/06/21 13:46:44;;;;;;;;;;;;;;;;;;5101463;28;20007;-67
2022/06/21 13:49:10;;;;;;;;;;;;;;;;;;5093185;28;19946;-67
2022/06/21 13:51:36;;;;;;;;;;;;;;;;;;5094574;28;19932;-66
2022/06/21 13:54:03;;;;;;;;;;;;;;;;;;5094143;28;19924;-67
2022/06/21 13:56:29;;;;;;;;;;;;;;;;;;5092749;28;19924;-67
2022/06/21 13:58:55;;;;;;;;;;;;;;;;;;5094655;28;19931;-67
2022/06/21 14:01:21;;;;;;;;;;;;;;;;;;5087689;28;19989;-68
2022/06/21 14:03:47;;;;;;;;;;;;;;;;;;5082308;28;19977;-67
2022/06/21 14:06:13;;;;;;;;;;;;;;;;;;5087931;28;20014;-67
2022/06/21 14:08:40;;;;;;;;;;;;;;;;;;5085408;28;20007;-68
2022/06/21 14:11:06;;;;;;;;;;;;;;;;;;5092333;28;19974;-68
2022/06/21 14:13:32;;;;;;;;;;;;;;;;;;5094021;28;19928;-68
2022/06/21 14:15:58;;;;;;;;;;;;;;;;;;5093008;28;19920;-68
2022/06/21 14:18:24;;;;;;;;;;;;;;;;;;5092292;28;19924;-67
2022/06/21 14:20:50;;;;;;;;;;;;;;;;;;5093641;28;20386;-68
2022/06/21 14:23:16;;;;;;;;;;;;;;;;;;5087813;28;19921;-66
2022/06/21 14:25:42;;;;;;;;;;;;;;;;;;5086991;28;19924;-69
2022/06/21 14:28:08;;;;;;;;;;;;;;;;;;5094822;28;19947;-67
2022/06/21 14:30:34;;;;;;;;;;;;;;;;;;5093611;28;19942;-67
2022/06/21 14:33:01;;;;;;;;;;;;;;;;;;5090630;28;19929;-68
2022/06/21 14:35:27;;;;;;;;;;;;;;;;;;5077085;28;19920;-67
2022/06/21 14:37:54;;;;;;;;;;;;;;;;;;5082816;28;20262;-67
2022/06/21 14:40:20;;;;;;;;;;;;;;;;;;5093711;28;20010;-67
2022/06/21 14:42:46;;;;;;;;;;;;;;;;;;5093032;28;20007;-68
2022/06/21 14:45:12;;;;;;;;;;;;;;;;;;5084045;28;20073;-68
2022/06/21 14:47:38;;;;;;;;;;;;;;;;;;5091516;28;19927;-68
2022/06/21 14:50:04;;;;;;;;;;;;;;;;;;5091537;28;19954;-68
2022/06/21 14:52:30;;;;;;;;;;;;;;;;;;5093544;28;20073;-68
2022/06/21 14:54:56;;;;;;;;;;;;;;;;;;5102185;28;20398;-68
2022/06/21 14:57:22;;;;;;;;;;;;;;;;;;5112670;28;20000;-68
2022/06/21 14:59:50;;;;;;;;;;;;;;;;;;5096763;28;19921;-68
2022/06/21 15:02:16;;;;;;;;;;;;;;;;;;5093244;28;19920;-68
2022/06/21 15:04:42;;;;;;;;;;;;;;;;;;5093093;28;19931;-67
2022/06/21 15:07:08;;;;;;;;;;;;;;;;;;5096453;28;19920;-68
2022/06/21 15:09:34;;;;;;;;;;;;;;;;;;5073543;28;19944;-68
2022/06/21 15:12:00;;;;;;;;;;;;;;;;;;5089604;28;19920;-68
2022/06/21 15:14:26;;;;;;;;;;;;;;;;;;5094080;28;19920;-68
2022/06/21 15:16:52;;;;;;;;;;;;;;;;;;5094471;28;19939;-68
2022/06/21 15:22:03;;;;;;;;;;;;;;;;;;5073782;28;20278;-68
2022/06/21 15:24:30;;;;;;;;;;;;;;;;;;5073590;28;19928;-68
2022/06/21 15:26:56;;;;;;;;;;;;;;;;;;5087561;28;19920;-68
2022/06/21 15:29:22;;;;;;;;;;;;;;;;;;5093864;28;19935;-68
2022/06/21 15:31:47;;;;;;;;;;;;;;;;;;5093635;28;20027;-68
2022/06/21 15:34:13;;;;;;;;;;;;;;;;;;5093046;28;19927;-69
2022/06/21 15:36:39;;;;;;;;;;;;;;;;;;5093608;28;19970;-69
2022/06/21 15:39:05;;;;;;;;;;;;;;;;;;5093781;28;19997;-69
2022/06/21 15:41:31;;;;;;;;;;;;;;;;;;5092936;28;19931;-69
2022/06/21 15:43:57;;;;;;;;;;;;;;;;;;5093245;28;19924;-69
2022/06/21 15:46:23;;;;;;;;;;;;;;;;;;5093282;28;19927;-69
2022/06/21 15:51:34;;;;;;;;;;;;;;;;;;5093197;28;20294;-69
2022/06/21 15:54:00;;;;;;;;;;;;;;;;;;5093452;28;19924;-69
2022/06/21 15:56:26;;;;;;;;;;;;;;;;;;5092683;28;19920;-69
2022/06/21 15:58:52;;;;;;;;;;;;;;;;;;5093299;28;19924;-69
2022/06/21 16:01:18;;;;;;;;;;;;;;;;;;5092854;28;20275;-69
2022/06/21 16:03:45;;;;;;;;;;;;;;;;;;5092613;28;19928;-69
2022/06/21 16:06:11;;;;;;;;;;;;;;;;;;5092843;28;19932;-69
2022/06/21 16:08:37;;;;;;;;;;;;;;;;;;5092977;28;19926;-69
2022/06/21 16:11:03;;;;;;;;;;;;;;;;;;5092220;28;19928;-69
2022/06/21 16:13:29;;;;;;;;;;;;;;;;;;5093059;28;19920;-69
2022/06/21 16:15:54;;;;;;;;;;;;;;;;;;5092912;28;19923;-69
2022/06/21 16:18:20;;;;;;;;;;;;;;;;;;5092419;28;20008;-69
2022/06/21 16:20:46;;;;;;;;;;;;;;;;;;5092806;28;19924;-69
2022/06/21 16:23:12;;;;;;;;;;;;;;;;;;5092849;28;19999;-69
2022/06/21 16:25:39;;;;;;;;;;;;;;;;;;5088114;28;19951;-69
2022/06/21 16:28:05;;;;;;;;;;;;;;;;;;5072651;28;20240;-68
2022/06/21 16:30:31;;;;;;;;;;;;;;;;;;5072626;28;19973;-68
2022/06/21 16:35:41;;;;;;;;;;;;;;;;;;5072837;28;20258;-68
2022/06/21 16:38:07;;;;;;;;;;;;;;;;;;5072992;28;20073;-68
2022/06/21 16:43:17;;;;;;;;;;;;;;;;;;5072340;28;20321;-68
2022/06/21 16:45:43;;;;;;;;;;;;;;;;;;5072862;28;19927;-68
2022/06/21 16:48:09;;;;;;;;;;;;;;;;;;5071953;28;19920;-68
2022/06/21 16:50:36;;;;;;;;;;;;;;;;;;5072020;28;19928;-68
2022/06/21 16:53:01;;;;;;;;;;;;;;;;;;5072640;28;19939;-68
2022/06/21 16:55:28;;;;;;;;;;;;;;;;;;5071528;28;19924;-68
2022/06/21 16:57:54;;;;;;;;;;;;;;;;;;5072168;28;20336;-68
2022/06/21 17:00:20;;;;;;;;;;;;;;;;;;5072120;28;19920;-68
2022/06/21 17:02:46;;;;;;;;;;;;;;;;;;5071418;28;19974;-68
2022/06/21 17:05:12;;;;;;;;;;;;;;;;;;5071987;28;19924;-68